Flight Track Log - Related Links

Times and Time Zones

All times are in EDT time to prevent confusion due to time zone crossing. See the CDG4626 flight status page for this flight to view local times or setup timezone preferences in your user account.

Time Position Orientation Groundspeed Altitude Reporting Facility
EDT Latitude Longitude Course Direction KTS MPH feet Rate Location/Type
Sun 11:07:00 AM 38.1006 121.1557 199° South  Level Estimated
Sun 11:08:00 AM 38.0044 121.1137 199° South  Level Estimated
Sun 11:09:00 AM 37.9082 121.0718 199° South  Level Estimated
Sun 11:10:00 AM 37.8353 121.0402 199° South  Level Estimated
Sun 11:11:00 AM 37.7625 121.0087 199° South  Level Estimated
Sun 11:12:00 AM 37.6897 120.9772 199° South  Level Estimated
Sun 11:13:00 AM 37.6168 120.9457 199° South  Level Estimated
Sun 11:14:00 AM 37.5440 120.9144 199° South  Level Estimated
Sun 11:15:00 AM 37.4711 120.8831 199° South  Level Estimated
Sun 11:16:00 AM 37.3983 120.8518 199° South  Level Estimated
Sun 11:17:00 AM 37.3254 120.8206 199° South  Level Estimated
Sun 11:18:00 AM 37.2525 120.7895 199° South  Level Estimated
Sun 11:19:00 AM 37.1796 120.7585 199° South  Level Estimated
Sun 11:20:00 AM 37.1067 120.7274 199° South  Level Estimated
Sun 11:21:00 AM 37.0338 120.6965 199° South  Level Estimated
Sun 11:22:00 AM 36.9609 120.6656 199° South  Level Estimated
Sun 11:23:00 AM 36.8879 120.6348 199° South  Level Estimated
Sun 11:24:00 AM 36.8150 120.6040 199° South  Level Estimated
Sun 11:25:00 AM 36.7421 120.5733 199° South  Level Estimated
Sun 11:26:00 AM 36.6691 120.5426 199° South  Level Estimated
Sun 11:27:00 AM 36.5961 120.5121 199° South  Level Estimated
Sun 11:28:00 AM 36.5232 120.4815 199° South  Level Estimated
Sun 11:29:00 AM 36.4502 120.4510 199° South  Level Estimated
Sun 11:30:00 AM 36.3772 120.4206 199° South  Level Estimated
Sun 11:31:00 AM 36.3042 120.3903 199° South  Level Estimated
Sun 11:32:00 AM 36.2661 120.3744 199° South  Level Estimated
Sun 11:33:00 AM 36.2661 120.3744 238° Southwest  Level Estimated
Sun 11:34:00 AM 36.2661 120.3744 238° Southwest  Level Estimated
Sun 11:35:00 AM 36.2661 120.3744 238° Southwest  Level Estimated
Sun 11:36:00 AM 36.2661 120.3744 238° Southwest  Level Estimated
Sun 11:37:00 AM 36.2661 120.3744 238° Southwest  Level Estimated
Sun 11:38:00 AM 36.2661 120.3744 238° Southwest  Level Estimated
Sun 11:39:00 AM 36.2661 120.3744 238° Southwest  Level Estimated
Sun 11:40:00 AM 36.2661 120.3744 238° Southwest  Level Estimated
Sun 11:41:00 AM 36.2661 120.3744 238° Southwest  Level Estimated
Sun 11:42:00 AM 36.2661 120.3744 238° Southwest  Level Estimated
Sun 11:43:00 AM 36.2661 120.3744 238° Southwest  Level Estimated
Sun 11:44:00 AM 36.2661 120.3744 238° Southwest  Level Estimated
Sun 11:45:00 AM 36.2661 120.3744 238° Southwest  Level Estimated
Sun 11:46:00 AM 36.2661 120.3744 238° Southwest  Level Estimated
Sun 11:47:00 AM 36.2661 120.3744 238° Southwest  Level Estimated

Login

Don't have an account? Register now (free) for customized features, flight alerts, and more!